Time;durP1;ratioP1;P1;durP2;ratioP2;P2;SDS_P1;SDS_P2;PMS_P1;PMS_P2;Temp;Humidity;BMP_temperature;BMP_pressure;BME280_temperature;BME280_humidity;BME280_pressure;Samples;Min_cycle;Max_cycle;Signal;HPM_P1;HPM_P2
2022/03/07 00:00:52;;;;;;;1.05;0.40;;;4.90;99.90;;;;;;6280604;22;20015;-92
2022/03/07 00:03:19;;;;;;;3.95;1.17;;;4.90;99.90;;;;;;6280307;22;20019;-92
2022/03/07 00:05:46;;;;;;;5.03;0.60;;;4.90;99.90;;;;;;6280948;22;20026;-91
2022/03/07 00:08:14;;;;;;;1.83;0.75;;;4.90;99.90;;;;;;6282881;22;20015;-91
2022/03/07 00:11:02;;;;;;;2.33;0.43;;;4.90;99.90;;;;;;6286455;22;20058;-91
2022/03/07 00:13:29;;;;;;;4.30;0.65;;;4.90;99.90;;;;;;6294499;22;20027;-91
2022/03/07 00:15:57;;;;;;;1.35;0.40;;;4.80;99.90;;;;;;6255697;22;20023;-92
2022/03/07 00:18:24;;;;;;;1.10;0.50;;;4.80;99.90;;;;;;6280763;22;20026;-91
2022/03/07 00:20:51;;;;;;;3.22;0.88;;;4.80;99.90;;;;;;6254703;22;20019;-91
2022/03/07 00:23:18;;;;;;;5.68;0.85;;;4.80;99.90;;;;;;6280049;22;20019;-92
2022/03/07 00:25:45;;;;;;;2.35;0.47;;;4.80;99.90;;;;;;6280938;22;20068;-92
2022/03/07 00:28:15;;;;;;;2.80;1.02;;;4.80;99.90;;;;;;6280460;22;20020;-92
2022/03/07 00:30:42;;;;;;;3.63;0.63;;;4.80;99.90;;;;;;6280347;22;20023;-93
2022/03/07 00:33:11;;;;;;;3.30;0.50;;;4.80;99.90;;;;;;6280378;22;20027;-91
2022/03/07 00:35:38;;;;;;;1.70;0.50;;;4.80;99.90;;;;;;6280475;22;20019;-91
2022/03/07 00:38:07;;;;;;;3.63;1.38;;;4.80;99.90;;;;;;6255113;22;20023;-92
2022/03/07 00:40:37;;;;;;;3.25;0.50;;;4.70;99.90;;;;;;6281052;22;20078;-91
2022/03/07 00:43:10;;;;;;;2.03;0.57;;;4.80;99.90;;;;;;6306544;22;20019;-92
2022/03/07 00:45:39;;;;;;;1.92;0.32;;;4.70;99.90;;;;;;6306051;22;20438;-92
2022/03/07 00:48:09;;;;;;;1.08;0.28;;;4.70;99.90;;;;;;6281036;22;20015;-91
2022/03/07 00:50:42;;;;;;;1.48;0.40;;;4.70;99.90;;;;;;6280118;22;20022;-91
2022/03/07 00:53:12;;;;;;;1.55;0.45;;;4.70;99.90;;;;;;6254591;22;20020;-92
2022/03/07 00:55:40;;;;;;;4.60;0.60;;;4.70;99.90;;;;;;6304762;22;20027;-91
2022/03/07 00:58:09;;;;;;;3.90;0.60;;;4.70;99.90;;;;;;6281343;22;20039;-91
2022/03/07 01:00:38;;;;;;;1.33;0.70;;;4.70;99.90;;;;;;6280351;22;20019;-92
2022/03/07 01:03:06;;;;;;;3.03;1.25;;;4.60;99.90;;;;;;6280361;22;20042;-92
2022/03/07 01:05:34;;;;;;;4.38;1.35;;;4.60;99.90;;;;;;6280458;22;20020;-91
2022/03/07 01:08:01;;;;;;;1.42;0.50;;;4.60;99.90;;;;;;6279866;22;20015;-91
2022/03/07 01:10:28;;;;;;;2.08;0.40;;;4.60;99.90;;;;;;6280330;22;20076;-91
2022/03/07 01:12:55;;;;;;;3.00;0.68;;;4.60;99.90;;;;;;6254769;22;20090;-91
2022/03/07 01:15:22;;;;;;;3.63;0.40;;;4.60;99.90;;;;;;6280418;22;20103;-91
2022/03/07 01:17:49;;;;;;;4.85;0.93;;;4.50;99.90;;;;;;6280078;22;20029;-92
2022/03/07 01:20:18;;;;;;;2.22;0.35;;;4.50;99.90;;;;;;6280508;22;20122;-91
2022/03/07 01:22:45;;;;;;;2.20;0.57;;;4.50;99.90;;;;;;6280097;22;20019;-91
2022/03/07 01:25:12;;;;;;;3.42;0.60;;;4.50;99.90;;;;;;6280354;22;20466;-90
2022/03/07 01:27:40;;;;;;;3.67;0.68;;;4.40;99.90;;;;;;6281459;22;20090;-91
2022/03/07 01:30:07;;;;;;;3.80;0.70;;;4.40;99.90;;;;;;6281973;22;20496;-92
2022/03/07 01:32:35;;;;;;;1.95;1.08;;;4.40;99.90;;;;;;6281907;22;20098;-91
2022/03/07 01:35:03;;;;;;;3.28;0.38;;;4.40;99.90;;;;;;6280902;22;20401;-89
2022/03/07 01:37:32;;;;;;;1.60;0.65;;;4.40;99.90;;;;;;6281202;22;20022;-90
2022/03/07 01:40:00;;;;;;;4.13;0.85;;;4.30;99.90;;;;;;6281265;22;20026;-90
2022/03/07 01:42:27;;;;;;;3.20;0.70;;;4.30;99.90;;;;;;6280910;22;20027;-90
2022/03/07 01:44:54;;;;;;;2.17;0.50;;;4.30;99.90;;;;;;6281219;22;20098;-90
2022/03/07 01:47:23;;;;;;;3.30;0.70;;;4.30;99.90;;;;;;6281273;22;20403;-91
2022/03/07 01:49:52;;;;;;;3.25;0.70;;;4.30;99.90;;;;;;6281280;22;20027;-91
2022/03/07 01:52:20;;;;;;;1.25;0.50;;;4.20;99.90;;;;;;6280688;22;20023;-89
2022/03/07 01:54:49;;;;;;;7.03;2.00;;;4.20;99.90;;;;;;6281563;22;20015;-90
2022/03/07 01:57:16;;;;;;;6.18;0.65;;;4.20;99.90;;;;;;6281075;22;20023;-91
2022/03/07 01:59:43;;;;;;;2.22;0.73;;;4.20;99.90;;;;;;6255808;22;20520;-91
2022/03/07 02:02:10;;;;;;;3.25;0.70;;;4.20;99.90;;;;;;6280839;22;20019;-90
2022/03/07 02:04:40;;;;;;;3.10;0.50;;;4.20;99.90;;;;;;6281141;22;20058;-90
2022/03/07 02:07:10;;;;;;;2.15;0.50;;;4.20;99.90;;;;;;6281978;22;20057;-91
2022/03/07 02:09:37;;;;;;;4.38;0.60;;;4.10;99.90;;;;;;6281010;22;20023;-89
2022/03/07 02:12:04;;;;;;;1.95;0.43;;;4.10;99.90;;;;;;6255787;22;20015;-91
2022/03/07 02:14:34;;;;;;;7.88;1.33;;;4.10;99.90;;;;;;6281713;22;20023;-90
2022/03/07 02:17:02;;;;;;;1.52;0.68;;;4.10;99.90;;;;;;6282071;22;20022;-91
2022/03/07 02:19:29;;;;;;;2.22;0.73;;;4.10;99.90;;;;;;6281486;22;20022;-92
2022/03/07 02:22:01;;;;;;;4.05;0.73;;;4.10;99.90;;;;;;6256179;22;20076;-91
2022/03/07 02:24:34;;;;;;;2.78;0.65;;;4.10;99.90;;;;;;6282727;22;20456;-92
2022/03/07 02:27:07;;;;;;;4.00;0.93;;;4.00;99.90;;;;;;6283233;22;20023;-91
2022/03/07 02:29:39;;;;;;;2.20;0.38;;;4.00;99.90;;;;;;6281809;22;20445;-92
2022/03/07 02:32:08;;;;;;;1.70;0.50;;;4.00;99.90;;;;;;6281082;22;20038;-92
2022/03/07 02:34:43;;;;;;;2.72;0.60;;;4.00;99.90;;;;;;6257358;22;20069;-91
2022/03/07 02:37:11;;;;;;;11.18;0.75;;;4.00;99.90;;;;;;6282083;22;20030;-90
2022/03/07 02:39:53;;;;;;;2.73;0.60;;;4.00;99.90;;;;;;6283476;22;20023;-92
2022/03/07 02:42:43;;;;;;;6.05;0.73;;;4.00;99.90;;;;;;6260543;22;20015;-91
2022/03/07 02:45:10;;;;;;;3.45;0.80;;;4.00;99.90;;;;;;6281233;22;20012;-92
2022/03/07 02:47:37;;;;;;;5.22;0.65;;;4.00;99.90;;;;;;6280748;22;20019;-91
2022/03/07 02:50:05;;;;;;;3.30;0.57;;;3.90;99.90;;;;;;6280843;22;20030;-91
2022/03/07 02:52:32;;;;;;;4.18;1.27;;;3.90;99.90;;;;;;6281420;22;20023;-91
2022/03/07 02:55:00;;;;;;;1.73;0.60;;;3.90;99.90;;;;;;6287424;22;20052;-90
2022/03/07 02:57:27;;;;;;;2.58;0.90;;;3.90;99.90;;;;;;6287682;22;20019;-90
2022/03/07 02:59:54;;;;;;;2.67;1.20;;;3.90;99.90;;;;;;6294033;22;20026;-90
2022/03/07 03:02:21;;;;;;;4.38;0.55;;;3.80;99.90;;;;;;6288849;22;20020;-90
2022/03/07 03:04:48;;;;;;;1.35;0.60;;;3.80;99.90;;;;;;6280924;22;20019;-90
2022/03/07 03:07:15;;;;;;;3.97;1.57;;;3.80;99.90;;;;;;6280598;22;20019;-91
2022/03/07 03:09:45;;;;;;;3.10;1.15;;;3.80;99.90;;;;;;6280552;22;20384;-91
2022/03/07 03:12:11;;;;;;;4.70;0.60;;;3.80;99.90;;;;;;6254507;22;20462;-90
2022/03/07 03:14:39;;;;;;;3.15;1.13;;;3.80;99.90;;;;;;6280519;22;20105;-90
2022/03/07 03:17:06;;;;;;;2.90;1.00;;;3.80;99.90;;;;;;6280867;22;20398;-90
2022/03/07 03:19:34;;;;;;;2.57;0.70;;;3.70;99.90;;;;;;6280384;22;20023;-91
2022/03/07 03:22:00;;;;;;;4.47;1.23;;;3.70;99.90;;;;;;6280867;22;20094;-91
2022/03/07 03:24:27;;;;;;;3.03;0.40;;;3.70;99.90;;;;;;6280481;22;20050;-90
2022/03/07 03:26:54;;;;;;;2.73;0.90;;;3.70;99.90;;;;;;6279916;22;20069;-91
2022/03/07 03:29:22;;;;;;;4.63;1.00;;;3.70;99.90;;;;;;6280131;22;20107;-90
2022/03/07 03:31:49;;;;;;;3.20;0.93;;;3.70;99.90;;;;;;6280164;22;20031;-90
2022/03/07 03:34:16;;;;;;;4.80;0.90;;;3.60;99.90;;;;;;6279697;22;20349;-91
2022/03/07 03:36:44;;;;;;;3.40;1.25;;;3.60;99.90;;;;;;6306994;22;20434;-90
2022/03/07 03:39:11;;;;;;;4.43;0.50;;;3.60;99.90;;;;;;6279999;22;20110;-90
2022/03/07 03:41:37;;;;;;;1.87;0.73;;;3.60;99.90;;;;;;6279752;22;20015;-91
2022/03/07 03:44:04;;;;;;;2.83;0.67;;;3.60;99.90;;;;;;6279873;22;20353;-90
2022/03/07 03:46:32;;;;;;;2.78;0.65;;;3.60;99.90;;;;;;6279678;22;20025;-90
2022/03/07 03:49:00;;;;;;;3.88;1.60;;;3.50;99.90;;;;;;6280482;22;20095;-90
2022/03/07 03:51:27;;;;;;;1.47;0.70;;;3.50;99.90;;;;;;6279474;22;20106;-90
2022/03/07 03:53:53;;;;;;;5.27;1.10;;;3.50;99.90;;;;;;6280311;22;20022;-89
2022/03/07 03:56:20;;;;;;;4.23;0.80;;;3.50;99.90;;;;;;6279559;22;20101;-90
2022/03/07 03:58:47;;;;;;;2.67;0.95;;;3.50;99.90;;;;;;6279790;22;20023;-90
2022/03/07 04:01:14;;;;;;;3.03;0.93;;;3.50;99.90;;;;;;6306586;22;20394;-91
2022/03/07 04:03:41;;;;;;;2.37;1.10;;;3.50;99.90;;;;;;6279665;22;20053;-91
2022/03/07 04:06:08;;;;;;;3.73;0.87;;;3.50;99.90;;;;;;6279728;22;20454;-90
2022/03/07 04:08:39;;;;;;;2.93;0.97;;;3.40;99.90;;;;;;6279682;22;20039;-90
2022/03/07 04:11:10;;;;;;;2.73;1.03;;;3.40;99.90;;;;;;6279277;22;20484;-90
2022/03/07 04:13:36;;;;;;;3.03;1.00;;;3.40;99.90;;;;;;6279643;22;20516;-90
2022/03/07 04:16:04;;;;;;;4.70;0.83;;;3.40;99.90;;;;;;6279499;22;20106;-91
2022/03/07 04:18:31;;;;;;;5.30;0.60;;;3.40;99.90;;;;;;6279709;22;20076;-90
2022/03/07 04:20:58;;;;;;;5.57;1.30;;;3.40;99.90;;;;;;6279481;22;20042;-91
2022/03/07 04:23:25;;;;;;;4.23;1.03;;;3.40;99.90;;;;;;6306550;22;20061;-91
2022/03/07 04:25:52;;;;;;;3.67;0.80;;;3.30;99.90;;;;;;6280176;22;20345;-89
2022/03/07 04:28:19;;;;;;;5.20;1.23;;;3.30;99.90;;;;;;6254376;22;20315;-91
2022/03/07 04:30:46;;;;;;;3.57;1.20;;;3.30;99.90;;;;;;6279469;22;20019;-90
2022/03/07 04:33:13;;;;;;;2.53;0.80;;;3.30;99.90;;;;;;6279907;22;20065;-90
2022/03/07 04:35:40;;;;;;;4.20;0.70;;;3.30;99.90;;;;;;6280417;22;20043;-90
2022/03/07 04:38:07;;;;;;;6.23;0.87;;;3.30;99.90;;;;;;6279402;22;20043;-90
2022/03/07 04:40:34;;;;;;;2.30;0.90;;;3.30;99.90;;;;;;6279710;22;20039;-90
2022/03/07 04:43:01;;;;;;;3.20;0.77;;;3.20;99.90;;;;;;6279207;22;20015;-90
2022/03/07 04:45:28;;;;;;;3.93;1.03;;;3.20;99.90;;;;;;6279397;22;20024;-90
2022/03/07 04:47:55;;;;;;;2.53;0.97;;;3.20;99.90;;;;;;6279782;22;20075;-90
2022/03/07 04:50:22;;;;;;;7.10;0.70;;;3.20;99.90;;;;;;6279385;22;20019;-90
2022/03/07 04:52:49;;;;;;;4.37;0.83;;;3.20;99.90;;;;;;6278929;22;20173;-90
2022/03/07 04:55:15;;;;;;;1.73;0.50;;;3.20;99.90;;;;;;6280223;22;20053;-90
2022/03/07 04:57:45;;;;;;;8.67;2.10;;;3.10;99.90;;;;;;6279288;22;20050;-90
2022/03/07 05:00:14;;;;;;;2.40;0.73;;;3.10;99.90;;;;;;6279312;22;20642;-90
2022/03/07 05:02:40;;;;;;;4.43;1.53;;;3.10;99.90;;;;;;6280453;22;20019;-90
2022/03/07 05:05:08;;;;;;;3.73;0.57;;;3.10;99.90;;;;;;6281573;22;20114;-90
2022/03/07 05:07:39;;;;;;;2.87;1.27;;;3.10;99.90;;;;;;6281851;22;20015;-92
2022/03/07 05:10:07;;;;;;;3.20;0.90;;;3.10;99.90;;;;;;6309211;22;20008;-91
2022/03/07 05:12:34;;;;;;;3.90;1.00;;;3.10;99.90;;;;;;6281764;22;20043;-91
2022/03/07 05:15:02;;;;;;;7.03;1.53;;;3.00;99.90;;;;;;6281796;22;20031;-90
2022/03/07 05:17:29;;;;;;;4.80;1.03;;;3.00;99.90;;;;;;6282066;22;20019;-90
2022/03/07 05:19:59;;;;;;;4.03;0.87;;;3.00;99.90;;;;;;6282180;22;20045;-92
2022/03/07 05:22:29;;;;;;;3.20;0.90;;;3.00;99.90;;;;;;6309256;22;20019;-92
2022/03/07 05:25:00;;;;;;;4.20;1.40;;;3.00;99.90;;;;;;6282962;22;20023;-92
2022/03/07 05:27:39;;;;;;;4.40;1.43;;;3.00;99.90;;;;;;6284609;22;20090;-92
2022/03/07 05:30:10;;;;;;;6.37;1.43;;;3.00;99.90;;;;;;6308761;22;20022;-90
2022/03/07 05:32:37;;;;;;;5.63;1.47;;;2.90;99.90;;;;;;6255053;22;20458;-90
2022/03/07 05:35:05;;;;;;;2.60;1.40;;;2.90;99.90;;;;;;6281213;22;20015;-89
2022/03/07 05:37:32;;;;;;;2.97;1.40;;;2.90;99.90;;;;;;6308613;22;20019;-90
2022/03/07 05:39:59;;;;;;;1.87;0.97;;;2.90;99.90;;;;;;6281992;22;20086;-90
2022/03/07 05:42:26;;;;;;;2.43;1.50;;;2.90;99.90;;;;;;6280639;22;20015;-90
2022/03/07 05:44:53;;;;;;;4.10;1.33;;;2.90;99.90;;;;;;6280874;22;20015;-89
2022/03/07 05:47:20;;;;;;;3.33;1.20;;;2.80;99.90;;;;;;6281908;22;20019;-90
2022/03/07 05:49:47;;;;;;;5.37;1.47;;;2.80;99.90;;;;;;6313023;22;20034;-88
2022/03/07 05:52:14;;;;;;;3.00;1.30;;;2.80;99.90;;;;;;6281616;22;20102;-91
2022/03/07 05:54:41;;;;;;;3.10;1.40;;;2.80;99.90;;;;;;6282321;22;20026;-89
2022/03/07 05:57:07;;;;;;;7.00;1.40;;;2.70;99.90;;;;;;6281465;22;20335;-90
2022/03/07 05:59:35;;;;;;;4.10;1.77;;;2.70;99.90;;;;;;6256275;22;20015;-89
2022/03/07 06:02:07;;;;;;;6.40;1.43;;;2.70;99.90;;;;;;6256674;22;20019;-89
2022/03/07 06:04:34;;;;;;;5.57;1.40;;;2.70;99.90;;;;;;6281262;22;20430;-91
2022/03/07 06:07:01;;;;;;;3.17;1.47;;;2.70;99.90;;;;;;6281018;22;20473;-90
2022/03/07 06:09:29;;;;;;;4.53;1.37;;;2.70;99.90;;;;;;6280223;22;20043;-89
2022/03/07 06:11:56;;;;;;;3.63;1.50;;;2.80;99.90;;;;;;6303880;22;20015;-89
2022/03/07 06:14:24;;;;;;;3.73;1.13;;;2.70;99.90;;;;;;6272689;22;20110;-90
2022/03/07 06:16:51;;;;;;;4.93;1.33;;;2.70;99.90;;;;;;6280147;22;20098;-89
2022/03/07 06:19:18;;;;;;;5.93;1.50;;;2.70;99.90;;;;;;6308529;22;20167;-91
2022/03/07 06:21:45;;;;;;;1.53;1.03;;;2.70;99.90;;;;;;6280483;22;20015;-90
2022/03/07 06:24:12;;;;;;;8.37;1.87;;;2.70;99.90;;;;;;6280540;22;20022;-89
2022/03/07 06:26:39;;;;;;;3.57;1.10;;;2.70;99.90;;;;;;6281503;22;20019;-89
2022/03/07 06:29:06;;;;;;;3.60;1.10;;;2.60;99.90;;;;;;6308821;22;20086;-90
2022/03/07 06:31:33;;;;;;;2.63;1.50;;;2.70;99.90;;;;;;6308815;22;20020;-90
2022/03/07 06:34:00;;;;;;;2.57;1.03;;;2.60;99.90;;;;;;6281858;22;20022;-88
2022/03/07 06:36:27;;;;;;;3.93;1.03;;;2.60;99.90;;;;;;6281587;22;20034;-90
2022/03/07 06:38:54;;;;;;;4.03;1.00;;;2.60;99.90;;;;;;6309449;22;20012;-89
2022/03/07 06:41:21;;;;;;;4.40;1.07;;;2.60;99.90;;;;;;6281372;22;20021;-90
2022/03/07 06:43:48;;;;;;;7.13;1.20;;;2.60;99.90;;;;;;6282154;22;20446;-89
2022/03/07 06:46:15;;;;;;;2.20;0.90;;;2.60;99.90;;;;;;6282650;22;20318;-90
2022/03/07 06:48:42;;;;;;;4.03;1.43;;;2.60;99.90;;;;;;6282190;22;20019;-90
2022/03/07 06:51:09;;;;;;;2.73;0.93;;;2.60;99.90;;;;;;6255761;22;20019;-90
2022/03/07 06:53:36;;;;;;;2.87;1.50;;;2.50;99.90;;;;;;6281821;22;20098;-90
2022/03/07 06:56:07;;;;;;;2.40;0.97;;;2.50;99.90;;;;;;6309132;22;20023;-89
2022/03/07 06:58:34;;;;;;;3.97;1.23;;;2.50;99.90;;;;;;6308980;22;20023;-90
2022/03/07 07:01:01;;;;;;;2.37;1.27;;;2.50;99.90;;;;;;6255928;22;20559;-90
2022/03/07 07:03:28;;;;;;;6.07;1.63;;;2.50;99.90;;;;;;6255182;22;20499;-89
2022/03/07 07:05:55;;;;;;;7.07;2.20;;;2.50;99.90;;;;;;6280591;22;20019;-89
2022/03/07 07:08:22;;;;;;;3.27;1.10;;;2.50;99.90;;;;;;6255308;22;20015;-89
2022/03/07 07:10:49;;;;;;;4.00;1.67;;;2.50;99.90;;;;;;6280791;22;20342;-89
2022/03/07 07:13:16;;;;;;;6.30;1.47;;;2.50;99.90;;;;;;6280368;22;20045;-89
2022/03/07 07:15:43;;;;;;;3.30;1.20;;;2.50;99.90;;;;;;6280580;22;20027;-89
2022/03/07 07:18:10;;;;;;;2.50;1.60;;;2.50;99.90;;;;;;6280521;22;20385;-90
2022/03/07 07:20:37;;;;;;;3.97;1.33;;;2.50;99.90;;;;;;6280197;22;20057;-89
2022/03/07 07:23:04;;;;;;;4.00;1.20;;;2.50;99.90;;;;;;6305731;22;20019;-90
2022/03/07 07:25:31;;;;;;;2.67;1.33;;;2.50;99.90;;;;;;6280659;22;20098;-89
2022/03/07 07:27:58;;;;;;;3.23;1.30;;;2.50;99.90;;;;;;6281179;22;20019;-89
2022/03/07 07:30:25;;;;;;;6.47;2.03;;;2.50;99.90;;;;;;6280988;22;20118;-90
2022/03/07 07:32:52;;;;;;;3.50;1.40;;;2.50;99.90;;;;;;6280422;22;20033;-90
2022/03/07 07:35:19;;;;;;;2.60;1.50;;;2.50;99.90;;;;;;6280157;22;20043;-89
2022/03/07 07:37:46;;;;;;;2.10;1.17;;;2.50;99.90;;;;;;6254971;22;20519;-90
2022/03/07 07:40:13;;;;;;;2.03;0.83;;;2.50;99.90;;;;;;6280164;22;20027;-89
2022/03/07 07:42:40;;;;;;;5.60;1.30;;;2.50;99.90;;;;;;6279893;22;20015;-90
2022/03/07 07:45:09;;;;;;;2.10;1.13;;;2.50;99.90;;;;;;6280916;22;20377;-90
2022/03/07 07:47:36;;;;;;;3.00;0.93;;;2.50;99.90;;;;;;6280972;22;20042;-90
2022/03/07 07:50:03;;;;;;;3.23;1.20;;;2.60;99.90;;;;;;6281306;22;20107;-89
2022/03/07 07:52:30;;;;;;;6.87;1.03;;;2.50;99.90;;;;;;6281075;22;20046;-89
2022/03/07 07:54:57;;;;;;;8.77;1.40;;;2.50;99.90;;;;;;6306543;22;20083;-90
2022/03/07 07:57:23;;;;;;;2.10;0.93;;;2.60;99.90;;;;;;6255512;22;20092;-90
2022/03/07 07:59:50;;;;;;;4.63;1.77;;;2.60;99.90;;;;;;6280775;22;20046;-89
2022/03/07 08:02:40;;;;;;;5.20;1.80;;;2.60;99.90;;;;;;6280624;22;20429;-90
2022/03/07 08:05:08;;;;;;;3.30;1.67;;;2.70;99.90;;;;;;6280140;22;20046;-90
2022/03/07 08:07:35;;;;;;;3.00;1.60;;;2.80;99.90;;;;;;6254755;22;20025;-89
2022/03/07 08:10:03;;;;;;;4.73;1.67;;;2.80;99.90;;;;;;6254992;22;20331;-90
2022/03/07 08:12:30;;;;;;;4.60;2.00;;;3.00;99.90;;;;;;6280424;22;20019;-90
2022/03/07 08:14:57;;;;;;;1.93;1.27;;;3.00;99.90;;;;;;6279924;22;20090;-89
2022/03/07 08:17:24;;;;;;;5.17;2.67;;;3.00;99.90;;;;;;6254717;22;20512;-90
2022/03/07 08:19:51;;;;;;;12.90;2.40;;;3.10;99.90;;;;;;6280169;22;20315;-89
2022/03/07 08:22:18;;;;;;;7.10;2.60;;;3.20;99.90;;;;;;6306936;22;20011;-90
2022/03/07 08:24:45;;;;;;;3.83;1.33;;;3.30;99.90;;;;;;6307057;22;20090;-90
2022/03/07 08:27:12;;;;;;;6.33;2.67;;;3.30;99.90;;;;;;6280082;22;20098;-90
2022/03/07 08:29:39;;;;;;;8.10;2.40;;;3.50;99.90;;;;;;6280114;22;20094;-90
2022/03/07 08:32:06;;;;;;;11.70;2.93;;;3.60;99.90;;;;;;6254435;22;20019;-89
2022/03/07 08:34:35;;;;;;;8.33;3.17;;;3.70;99.90;;;;;;6280151;22;20106;-90
2022/03/07 08:37:02;;;;;;;5.80;2.70;;;3.80;99.90;;;;;;6285040;22;20015;-90
2022/03/07 08:39:29;;;;;;;7.57;2.43;;;3.90;99.90;;;;;;6257198;22;20409;-91
2022/03/07 08:41:56;;;;;;;7.77;3.37;;;3.90;99.90;;;;;;6282585;22;20019;-90
2022/03/07 08:44:23;;;;;;;8.63;3.97;;;3.90;99.90;;;;;;6281983;22;20347;-91
2022/03/07 08:46:51;;;;;;;5.20;3.40;;;4.00;99.90;;;;;;6283042;22;20011;-89
2022/03/07 08:49:18;;;;;;;11.70;4.67;;;4.00;99.90;;;;;;6282542;22;20034;-90
2022/03/07 08:51:46;;;;;;;7.27;3.73;;;4.10;99.90;;;;;;6282333;22;20015;-89
2022/03/07 08:54:14;;;;;;;11.67;4.50;;;4.10;99.90;;;;;;6281904;22;20450;-91
2022/03/07 08:56:41;;;;;;;7.77;5.03;;;4.10;99.90;;;;;;6282346;22;20021;-89
2022/03/07 08:59:08;;;;;;;6.37;3.77;;;4.10;99.90;;;;;;6282042;22;20047;-90
2022/03/07 09:01:36;;;;;;;10.13;5.63;;;4.10;99.90;;;;;;6282103;22;20015;-91
2022/03/07 09:04:03;;;;;;;13.03;4.87;;;4.10;99.90;;;;;;6308954;22;20022;-91
2022/03/07 09:06:30;;;;;;;10.53;4.40;;;4.00;99.90;;;;;;6256053;22;20027;-90
2022/03/07 09:08:57;;;;;;;7.87;3.20;;;4.10;99.90;;;;;;6281423;22;20020;-89
2022/03/07 09:11:44;;;;;;;8.10;4.27;;;4.10;99.90;;;;;;6286433;22;20026;-90
2022/03/07 09:14:12;;;;;;;9.90;4.77;;;4.10;99.90;;;;;;6282252;22;20090;-91
2022/03/07 09:16:39;;;;;;;8.43;4.63;;;4.20;99.90;;;;;;6281666;22;20316;-89
2022/03/07 09:19:06;;;;;;;6.23;3.73;;;4.20;99.90;;;;;;6281796;22;20041;-88
2022/03/07 09:21:33;;;;;;;10.27;4.40;;;4.20;99.90;;;;;;6281146;22;20019;-89
2022/03/07 09:24:00;;;;;;;7.57;4.50;;;4.30;99.90;;;;;;6280977;22;20047;-90
2022/03/07 09:26:27;;;;;;;7.50;4.10;;;4.30;99.90;;;;;;6282047;22;20042;-90
2022/03/07 09:28:54;;;;;;;8.53;3.83;;;4.30;99.90;;;;;;6282174;22;20085;-89
2022/03/07 09:31:21;;;;;;;13.07;5.27;;;4.40;99.90;;;;;;6281291;22;20046;-89
2022/03/07 09:33:49;;;;;;;13.40;4.77;;;4.40;99.90;;;;;;6308644;22;20023;-89
2022/03/07 09:36:16;;;;;;;10.30;4.80;;;4.50;99.90;;;;;;6308600;22;20089;-89
2022/03/07 09:38:43;;;;;;;10.93;4.10;;;4.40;99.90;;;;;;6281011;22;20350;-91
2022/03/07 09:41:11;;;;;;;7.60;4.47;;;4.50;99.90;;;;;;6309061;22;20023;-90
2022/03/07 09:43:38;;;;;;;15.17;4.40;;;4.50;99.90;;;;;;6280824;22;20068;-90
2022/03/07 09:46:05;;;;;;;11.80;3.53;;;4.60;99.90;;;;;;6307522;22;20119;-91
2022/03/07 09:48:32;;;;;;;7.40;3.77;;;4.50;99.90;;;;;;6307142;22;20110;-91
2022/03/07 09:51:00;;;;;;;8.17;3.80;;;4.60;99.90;;;;;;6309229;22;20434;-90
2022/03/07 09:53:30;;;;;;;6.47;4.07;;;4.70;99.90;;;;;;6282858;22;20019;-91
2022/03/07 09:55:57;;;;;;;8.60;3.78;;;4.70;99.90;;;;;;6308691;22;20022;-91
2022/03/07 09:58:23;;;;;;;7.30;4.30;;;4.80;99.90;;;;;;6255945;22;20057;-90
2022/03/07 10:00:50;;;;;;;12.50;4.33;;;4.80;99.90;;;;;;6281424;22;20019;-92
2022/03/07 10:03:18;;;;;;;11.52;5.05;;;4.90;99.90;;;;;;6281869;22;20106;-90
2022/03/07 10:05:48;;;;;;;9.70;5.18;;;4.90;99.90;;;;;;6281341;22;20489;-89
2022/03/07 10:08:28;;;;;;;11.13;4.88;;;4.90;99.90;;;;;;6281162;22;20503;-91
2022/03/07 10:10:57;;;;;;;10.77;5.10;;;4.90;99.90;;;;;;6281709;22;20047;-91
2022/03/07 10:13:24;;;;;;;8.83;4.23;;;5.00;99.90;;;;;;6308273;22;20507;-90
2022/03/07 10:16:02;;;;;;;8.27;4.60;;;5.00;99.90;;;;;;6281047;22;20023;-91
2022/03/07 10:18:30;;;;;;;9.00;5.07;;;5.00;99.90;;;;;;6282084;22;20015;-91
2022/03/07 10:21:02;;;;;;;6.55;4.72;;;5.20;99.90;;;;;;6281722;22;20105;-91
2022/03/07 10:23:30;;;;;;;11.30;4.47;;;5.30;99.90;;;;;;6281675;22;20050;-91
2022/03/07 10:26:09;;;;;;;8.95;4.53;;;5.20;99.90;;;;;;6307425;22;20015;-90
2022/03/07 10:28:42;;;;;;;6.07;3.63;;;5.20;99.90;;;;;;6283054;22;20094;-91
2022/03/07 10:31:14;;;;;;;7.90;5.05;;;5.40;99.90;;;;;;6281602;22;20019;-89
2022/03/07 10:33:41;;;;;;;9.23;4.70;;;5.40;99.90;;;;;;6281290;22;20446;-90
2022/03/07 10:36:08;;;;;;;11.18;5.05;;;5.40;99.90;;;;;;6281666;22;20019;-92
2022/03/07 10:38:35;;;;;;;7.68;4.35;;;5.50;99.90;;;;;;6281487;22;20019;-90
2022/03/07 10:41:04;;;;;;;9.67;4.93;;;5.40;99.90;;;;;;6281303;22;20051;-91
2022/03/07 10:43:31;;;;;;;10.00;4.38;;;5.40;99.90;;;;;;6281385;22;20031;-91
2022/03/07 10:46:01;;;;;;;10.18;4.30;;;5.60;99.90;;;;;;6281169;22;20019;-91
2022/03/07 10:48:39;;;;;;;10.93;4.43;;;5.70;99.90;;;;;;6308431;22;20015;-91
2022/03/07 10:51:17;;;;;;;5.88;4.22;;;5.60;99.90;;;;;;6281340;22;20450;-91
2022/03/07 10:53:45;;;;;;;8.40;5.57;;;5.60;99.90;;;;;;6281344;22;20027;-90
2022/03/07 10:56:14;;;;;;;8.75;4.85;;;5.60;99.90;;;;;;6309256;22;20023;-90
2022/03/07 10:59:11;;;;;;;6.32;3.88;;;5.70;99.90;;;;;;6308424;22;20058;-89
2022/03/07 11:01:38;;;;;;;10.00;5.00;;;5.70;99.90;;;;;;6279949;22;20061;-93
2022/03/07 11:04:05;;;;;;;5.05;3.50;;;5.90;99.90;;;;;;6281048;22;20027;-91
2022/03/07 11:06:32;;;;;;;9.50;4.45;;;5.90;99.90;;;;;;6280815;22;20637;-91
2022/03/07 11:08:59;;;;;;;9.82;5.00;;;5.90;99.90;;;;;;6281099;22;20015;-91
2022/03/07 11:11:26;;;;;;;7.03;4.90;;;6.00;99.90;;;;;;6280542;22;20085;-91
2022/03/07 11:13:55;;;;;;;11.60;4.50;;;6.00;99.90;;;;;;6255164;22;20069;-92
2022/03/07 11:16:22;;;;;;;7.97;5.05;;;6.00;99.90;;;;;;6280534;22;20102;-91
2022/03/07 11:18:54;;;;;;;10.23;4.18;;;6.10;99.90;;;;;;6280891;22;20023;-91
2022/03/07 11:21:29;;;;;;;7.50;4.40;;;6.30;99.90;;;;;;6285192;22;20023;-91
2022/03/07 11:23:56;;;;;;;6.65;4.28;;;6.30;99.90;;;;;;6314961;22;20015;-89
2022/03/07 11:26:23;;;;;;;7.25;4.22;;;6.40;99.90;;;;;;6286725;22;20038;-91
2022/03/07 11:28:51;;;;;;;8.05;4.13;;;6.20;99.90;;;;;;6280752;22;20039;-91
2022/03/07 11:31:22;;;;;;;7.05;5.13;;;6.30;99.90;;;;;;6281073;22;20496;-91
2022/03/07 11:33:51;;;;;;;8.32;4.57;;;6.40;99.90;;;;;;6281897;22;20020;-92
2022/03/07 11:36:20;;;;;;;7.18;4.95;;;6.40;99.90;;;;;;6281023;22;20093;-91
2022/03/07 11:38:59;;;;;;;7.43;4.68;;;6.50;99.90;;;;;;6280559;22;20030;-91
2022/03/07 11:41:29;;;;;;;8.75;4.50;;;6.50;99.90;;;;;;6281339;22;20091;-91
2022/03/07 11:44:02;;;;;;;8.88;5.05;;;6.70;99.90;;;;;;6281353;22;20023;-90
2022/03/07 11:46:32;;;;;;;7.10;4.45;;;6.70;99.90;;;;;;6307034;22;20094;-91
2022/03/07 11:49:01;;;;;;;7.72;4.85;;;6.50;99.90;;;;;;6280239;22;20454;-90
2022/03/07 11:51:30;;;;;;;8.20;4.38;;;6.60;99.90;;;;;;6280999;22;20049;-91
2022/03/07 11:53:58;;;;;;;9.23;4.80;;;6.60;99.90;;;;;;6280464;22;20019;-93
2022/03/07 11:56:30;;;;;;;8.60;4.57;;;6.70;99.90;;;;;;6281336;22;20220;-90
2022/03/07 11:58:59;;;;;;;7.82;4.55;;;6.60;99.90;;;;;;6280757;22;20015;-91
2022/03/07 12:01:30;;;;;;;8.18;4.88;;;6.70;99.90;;;;;;6307806;22;20045;-92
2022/03/07 12:04:11;;;;;;;6.43;4.18;;;6.70;99.90;;;;;;6281123;22;20038;-91
2022/03/07 12:06:42;;;;;;;9.60;5.93;;;6.80;99.90;;;;;;6280691;22;20072;-90
2022/03/07 12:09:10;;;;;;;6.05;4.35;;;6.80;99.90;;;;;;6280715;22;20026;-91
2022/03/07 12:11:39;;;;;;;8.57;4.65;;;6.80;99.90;;;;;;6279711;22;20106;-91
2022/03/07 12:14:09;;;;;;;7.85;4.63;;;6.80;99.90;;;;;;6280394;22;20053;-91
2022/03/07 12:16:40;;;;;;;7.95;4.95;;;6.90;99.90;;;;;;6281233;22;20165;-91
2022/03/07 12:19:18;;;;;;;9.27;5.38;;;6.90;99.90;;;;;;6307170;22;20054;-91
2022/03/07 12:21:47;;;;;;;10.00;4.25;;;7.00;99.90;;;;;;6280864;22;20027;-90
2022/03/07 12:24:16;;;;;;;8.60;4.57;;;7.00;90.30;;;;;;6281647;22;20011;-90
2022/03/07 12:26:54;;;;;;;6.78;4.43;;;7.00;94.70;;;;;;6281743;22;20011;-92
2022/03/07 12:29:24;;;;;;;5.28;3.53;;;7.20;95.50;;;;;;6280406;22;20026;-93
2022/03/07 12:31:55;;;;;;;4.68;3.90;;;7.30;85.00;;;;;;6281097;22;20065;-90
2022/03/07 12:34:27;;;;;;;7.93;4.53;;;7.20;78.10;;;;;;6281013;22;20025;-90
2022/03/07 12:37:03;;;;;;;6.43;4.13;;;7.20;74.10;;;;;;6280398;22;20324;-91
2022/03/07 12:39:42;;;;;;;6.70;3.88;;;7.30;82.40;;;;;;6281021;22;20464;-92
2022/03/07 12:42:09;;;;;;;5.40;3.20;;;7.40;74.00;;;;;;6280369;22;20082;-91
2022/03/07 12:44:40;;;;;;;5.80;3.83;;;7.50;62.90;;;;;;6307553;22;20102;-92
2022/03/07 12:47:08;;;;;;;6.00;2.83;;;7.40;69.80;;;;;;6255958;22;20011;-91
2022/03/07 12:49:36;;;;;;;5.03;3.83;;;7.50;76.30;;;;;;6280802;22;20381;-92
2022/03/07 12:52:06;;;;;;;6.63;4.13;;;7.40;63.60;;;;;;6281175;22;20016;-93
2022/03/07 12:54:37;;;;;;;8.60;3.15;;;7.40;76.80;;;;;;6281026;22;20015;-92
2022/03/07 12:57:05;;;;;;;6.25;3.92;;;7.30;57.10;;;;;;6280949;22;20353;-90
2022/03/07 12:59:34;;;;;;;5.88;3.67;;;7.30;60.30;;;;;;6280600;22;20023;-91
2022/03/07 13:02:04;;;;;;;5.55;3.38;;;7.10;56.90;;;;;;6280143;22;20446;-91